createdAt,value
2022-09-13T00:00:16.301Z,10.52
2022-09-13T00:03:03.718Z,14.23
2022-09-13T00:05:50.831Z,10.95
2022-09-13T00:08:39.026Z,10.38
2022-09-13T00:11:27.889Z,11.40
2022-09-13T00:14:14.709Z,11.05
2022-09-13T00:17:01.561Z,11.57
2022-09-13T00:19:48.378Z,12.65
2022-09-13T00:22:35.377Z,11.90
2022-09-13T00:25:22.837Z,11.63
2022-09-13T00:28:09.683Z,11.43
2022-09-13T00:30:59.597Z,11.93
2022-09-13T00:33:46.485Z,12.43
2022-09-13T00:36:33.485Z,10.75
2022-09-13T00:39:20.634Z,11.43
2022-09-13T00:42:10.261Z,12.15
2022-09-13T00:44:58.577Z,13.05
2022-09-13T00:47:48.466Z,11.60
2022-09-13T00:50:39.215Z,11.68
2022-09-13T00:53:30.413Z,14.48
2022-09-13T00:56:22.819Z,12.00
2022-09-13T00:59:15.306Z,12.23
2022-09-13T01:02:03.670Z,12.02
2022-09-13T01:04:50.561Z,12.05
2022-09-13T01:07:37.875Z,13.55
2022-09-13T01:10:25.793Z,12.52
2022-09-13T01:13:18.023Z,11.15
2022-09-13T01:16:06.045Z,11.68
2022-09-13T01:18:52.953Z,11.85
2022-09-13T01:22:12.287Z,11.63
2022-09-13T01:25:27.960Z,11.45
2022-09-13T01:28:37.299Z,11.25
2022-09-13T01:31:31.237Z,11.25
2022-09-13T01:34:28.652Z,13.35
2022-09-13T01:37:32.822Z,11.65
2022-09-13T01:40:32.171Z,12.30
2022-09-13T01:43:34.595Z,14.07
2022-09-13T01:46:28.271Z,12.30
2022-09-13T01:49:19.760Z,13.40
2022-09-13T01:52:16.988Z,13.20
2022-09-13T01:55:10.935Z,13.30
2022-09-13T01:58:06.936Z,12.60
2022-09-13T02:01:00.932Z,13.57
2022-09-13T02:03:54.820Z,14.85
2022-09-13T02:06:45.664Z,13.38
2022-09-13T02:09:35.795Z,12.23
2022-09-13T02:12:25.439Z,12.98
2022-09-13T02:15:16.161Z,12.52
2022-09-13T02:18:08.140Z,14.23
2022-09-13T02:21:00.445Z,12.60
2022-09-13T02:23:51.165Z,12.77
2022-09-13T02:26:39.957Z,13.65
2022-09-13T02:29:28.996Z,13.05
2022-09-13T02:32:21.672Z,13.43
2022-09-13T02:35:13.361Z,13.18
2022-09-13T02:38:05.425Z,12.40
2022-09-13T02:40:57.974Z,14.23
2022-09-13T02:43:50.478Z,13.27
2022-09-13T02:47:11.502Z,13.55
2022-09-13T02:50:08.841Z,12.45
2022-09-13T02:53:04.441Z,12.05
2022-09-13T02:55:56.945Z,13.90
2022-09-13T02:58:47.593Z,11.77
2022-09-13T03:01:36.402Z,11.65
2022-09-13T03:04:23.397Z,11.32
2022-09-13T03:07:10.946Z,12.20
2022-09-13T03:10:04.054Z,12.10
2022-09-13T03:13:10.955Z,11.23
2022-09-13T03:16:09.711Z,10.63
2022-09-13T03:19:14.041Z,11.15
2022-09-13T03:22:20.994Z,10.70
2022-09-13T03:25:14.654Z,12.75
2022-09-13T03:28:12.962Z,10.63
2022-09-13T03:31:05.498Z,12.60
2022-09-13T03:33:58.194Z,9.95
2022-09-13T03:36:51.719Z,9.45
2022-09-13T03:39:43.559Z,9.98
2022-09-13T03:42:37.223Z,10.52
2022-09-13T03:45:28.219Z,12.38
2022-09-13T03:48:16.203Z,9.90
2022-09-13T03:51:03.247Z,12.52
2022-09-13T03:53:55.495Z,10.63
2022-09-13T03:56:42.378Z,10.00
2022-09-13T03:59:29.919Z,12.88
2022-09-13T04:02:17.645Z,10.52
2022-09-13T04:05:05.391Z,11.30
2022-09-13T04:07:52.212Z,10.43
2022-09-13T04:10:39.888Z,11.63
2022-09-13T04:13:27.127Z,9.98
2022-09-13T04:16:14.643Z,9.73
2022-09-13T04:19:01.497Z,9.70
2022-09-13T04:21:48.876Z,10.15
2022-09-13T04:24:36.622Z,9.35
2022-09-13T04:27:24.668Z,9.05
2022-09-13T04:30:12.368Z,8.88
2022-09-13T04:32:59.837Z,10.85
2022-09-13T04:35:46.677Z,9.50
2022-09-13T04:38:33.517Z,8.70
2022-09-13T04:41:20.362Z,10.00
2022-09-13T04:44:07.308Z,8.95
2022-09-13T04:46:55.016Z,9.63
2022-09-13T04:49:42.472Z,9.48
2022-09-13T04:52:29.452Z,8.45
2022-09-13T04:55:16.453Z,8.32
2022-09-13T04:58:04.122Z,9.45
2022-09-13T05:00:55.850Z,9.07
2022-09-13T05:03:42.753Z,8.73
2022-09-13T05:06:30.226Z,9.38
2022-09-13T05:09:17.105Z,9.75
2022-09-13T05:12:04.601Z,8.60
2022-09-13T05:14:51.400Z,8.60
2022-09-13T05:17:38.402Z,9.05
2022-09-13T05:20:25.332Z,10.32
2022-09-13T05:23:12.825Z,8.73
2022-09-13T05:26:01.133Z,9.65
2022-09-13T05:28:47.985Z,9.32
2022-09-13T05:31:36.775Z,8.57
2022-09-13T05:34:23.652Z,8.32
2022-09-13T05:37:10.498Z,8.65
2022-09-13T05:40:11.323Z,8.52
2022-09-13T05:42:59.013Z,7.75
2022-09-13T05:45:46.015Z,7.43
2022-09-13T05:48:34.093Z,8.00
2022-09-13T05:51:21.938Z,7.90
2022-09-13T05:54:11.319Z,8.38
2022-09-13T05:56:58.805Z,11.02
2022-09-13T05:59:47.188Z,7.80
2022-09-13T06:02:34.103Z,8.73
2022-09-13T06:05:21.025Z,8.25
2022-09-13T06:08:07.838Z,7.82
2022-09-13T06:10:56.338Z,7.88
2022-09-13T06:13:43.846Z,7.03
2022-09-13T06:16:30.703Z,7.55
2022-09-13T06:19:17.651Z,7.70
2022-09-13T06:22:04.562Z,7.55
2022-09-13T06:24:51.458Z,7.93
2022-09-13T06:27:38.290Z,7.80
2022-09-13T06:30:25.898Z,8.45
2022-09-13T06:33:12.736Z,7.50
2022-09-13T06:36:04.758Z,7.85
2022-09-13T06:38:51.678Z,10.32
2022-09-13T06:41:38.690Z,7.22
2022-09-13T06:44:25.680Z,7.38
2022-09-13T06:47:13.214Z,7.82
2022-09-13T06:50:00.166Z,8.20
2022-09-13T06:52:47.027Z,8.45
2022-09-13T06:55:33.847Z,8.07
2022-09-13T06:58:20.783Z,8.02
2022-09-13T07:01:13.743Z,9.95
2022-09-13T07:04:03.136Z,11.13
2022-09-13T07:06:50.175Z,7.50
2022-09-13T07:09:36.991Z,8.10
2022-09-13T07:12:23.817Z,8.18
2022-09-13T07:15:10.807Z,8.93
2022-09-13T07:17:57.623Z,9.55
2022-09-13T07:20:45.195Z,11.38
2022-09-13T07:23:33.136Z,8.95
2022-09-13T07:26:20.212Z,11.20
2022-09-13T07:29:10.519Z,9.73
2022-09-13T07:31:57.805Z,11.35
2022-09-13T07:34:44.642Z,11.00
2022-09-13T07:37:32.096Z,11.98
2022-09-13T07:40:18.978Z,12.40
2022-09-13T07:43:05.918Z,10.57
2022-09-13T07:46:00.838Z,11.10
2022-09-13T07:48:49.087Z,11.80
2022-09-13T07:51:38.764Z,12.77
2022-09-13T07:54:26.533Z,13.25
2022-09-13T07:57:13.370Z,12.43
2022-09-13T08:00:00.988Z,12.38
2022-09-13T08:02:47.873Z,12.55
2022-09-13T08:05:38.560Z,14.05
2022-09-13T08:08:25.392Z,11.40
2022-09-13T08:11:16.557Z,12.65
2022-09-13T08:14:04.545Z,13.25
2022-09-13T08:16:54.800Z,12.35
2022-09-13T08:19:41.723Z,11.40
2022-09-13T08:22:28.873Z,14.35
2022-09-13T08:25:15.901Z,12.27
2022-09-13T08:28:05.908Z,13.45
2022-09-13T08:30:52.777Z,15.05
2022-09-13T08:33:44.234Z,15.15
2022-09-13T08:36:33.022Z,13.35
2022-09-13T08:39:19.881Z,13.15
2022-09-13T08:42:19.261Z,15.77
2022-09-13T08:45:08.342Z,13.15
2022-09-13T08:47:58.362Z,14.23
2022-09-13T08:50:46.550Z,15.68
2022-09-13T08:53:42.844Z,14.65
2022-09-13T08:56:39.006Z,12.75
2022-09-13T08:59:45.538Z,14.27
2022-09-13T09:02:48.039Z,15.57
2022-09-13T09:05:46.882Z,15.10
2022-09-13T09:08:41.106Z,15.00
2022-09-13T09:11:35.571Z,15.50
2022-09-13T09:14:30.190Z,16.05
2022-09-13T09:17:22.310Z,16.58
2022-09-13T09:20:20.806Z,17.55
2022-09-13T09:23:17.826Z,15.73
2022-09-13T09:26:16.756Z,15.73
2022-09-13T09:29:11.287Z,14.30
2022-09-13T09:32:17.889Z,16.15
2022-09-13T09:35:16.653Z,18.42
2022-09-13T09:38:21.142Z,14.60
2022-09-13T09:41:15.357Z,17.73
2022-09-13T09:44:08.831Z,16.52
2022-09-13T09:46:59.194Z,18.65
2022-09-13T09:50:08.394Z,16.95
2022-09-13T09:53:02.683Z,19.70
2022-09-13T09:55:55.406Z,18.40
2022-09-13T09:58:44.335Z,18.45
2022-09-13T10:01:33.639Z,18.10
2022-09-13T10:04:21.989Z,18.65
2022-09-13T10:07:24.822Z,18.95
2022-09-13T10:10:23.729Z,18.90
2022-09-13T10:13:16.711Z,22.33
2022-09-13T10:16:05.237Z,19.45
2022-09-13T10:18:52.140Z,19.00
2022-09-13T10:21:38.988Z,19.23
2022-09-13T10:24:27.631Z,17.73
2022-09-13T10:27:25.348Z,21.88
2022-09-13T10:30:30.946Z,20.85
2022-09-13T10:33:26.248Z,19.08
2022-09-13T10:36:25.136Z,18.80
2022-09-13T10:39:27.943Z,19.73
2022-09-13T10:42:23.365Z,18.65
2022-09-13T10:45:22.417Z,20.13
2022-09-13T10:48:12.855Z,19.85
2022-09-13T10:51:01.918Z,20.77
2022-09-13T10:53:48.808Z,20.50
2022-09-13T10:56:35.832Z,16.83
2022-09-13T10:59:25.238Z,12.25
2022-09-13T11:02:48.642Z,12.85
2022-09-13T11:05:42.706Z,14.88
2022-09-13T11:08:42.214Z,12.93
2022-09-13T11:11:34.650Z,11.38
2022-09-13T11:14:42.558Z,11.43
2022-09-13T11:17:49.399Z,10.77
2022-09-13T11:20:44.834Z,8.40
2022-09-13T11:23:48.609Z,11.35
2022-09-13T11:26:51.990Z,9.95
2022-09-13T11:29:58.245Z,11.50
2022-09-13T11:33:16.742Z,11.20
2022-09-13T11:36:30.834Z,8.18
2022-09-13T11:39:30.374Z,11.13
2022-09-13T11:42:32.322Z,10.98
2022-09-13T11:45:23.058Z,9.45
2022-09-13T11:48:32.454Z,8.55
2022-09-13T11:51:30.207Z,9.77
2022-09-13T11:54:30.790Z,7.22
2022-09-13T11:57:22.894Z,8.45
2022-09-13T12:00:19.656Z,7.07
2022-09-13T12:03:16.281Z,10.05
2022-09-13T12:06:10.652Z,12.52
2022-09-13T12:09:02.165Z,10.02
2022-09-13T12:11:53.372Z,7.85
2022-09-13T12:14:46.719Z,10.38
2022-09-13T12:17:39.409Z,8.43
2022-09-13T12:20:32.778Z,11.35
2022-09-13T12:23:26.605Z,10.52
2022-09-13T12:26:20.332Z,8.75
2022-09-13T12:29:15.111Z,6.97
2022-09-13T12:32:04.314Z,8.52
2022-09-13T12:34:57.891Z,8.75
2022-09-13T12:38:11.695Z,9.75
2022-09-13T12:41:14.633Z,10.52
2022-09-13T12:44:22.489Z,9.75
2022-09-13T12:47:22.188Z,9.75
2022-09-13T12:50:44.472Z,7.63
2022-09-13T12:54:04.873Z,6.53
2022-09-13T12:57:03.488Z,8.52
2022-09-13T13:00:12.155Z,8.93
2022-09-13T13:03:10.995Z,9.07
2022-09-13T13:06:09.974Z,10.90
2022-09-13T13:09:01.482Z,7.40
2022-09-13T13:11:50.003Z,10.32
2022-09-13T13:14:52.485Z,8.52
2022-09-13T13:17:47.620Z,8.02
2022-09-13T13:21:06.610Z,8.95
2022-09-13T13:24:30.849Z,9.25
2022-09-13T13:27:36.350Z,8.65
2022-09-13T13:30:51.988Z,10.40
2022-09-13T13:33:48.028Z,8.93
2022-09-13T13:36:45.358Z,7.80
2022-09-13T13:39:37.943Z,9.43
2022-09-13T13:42:26.538Z,8.50
2022-09-13T13:45:21.740Z,9.45
2022-09-13T13:48:14.307Z,9.25
2022-09-13T13:51:19.080Z,7.72
2022-09-13T13:54:29.954Z,13.45
2022-09-13T13:57:24.135Z,11.25
2022-09-13T14:00:14.405Z,9.10
2022-09-13T14:03:14.865Z,8.70
2022-09-13T14:06:10.375Z,9.57
2022-09-13T14:09:05.811Z,8.88
2022-09-13T14:12:04.684Z,10.98
2022-09-13T14:15:14.734Z,10.35
2022-09-13T14:18:27.805Z,13.65
2022-09-13T14:21:24.076Z,12.38
2022-09-13T14:24:19.021Z,8.93
2022-09-13T14:27:09.548Z,9.23
2022-09-13T14:29:58.869Z,7.90
2022-09-13T14:32:49.982Z,7.22
2022-09-13T14:35:38.954Z,6.88
2022-09-13T14:38:32.818Z,7.00
2022-09-13T14:41:21.350Z,8.23
2022-09-13T14:44:22.452Z,7.15
2022-09-13T14:47:19.193Z,6.30
2022-09-13T14:50:12.214Z,7.65
2022-09-13T14:53:02.487Z,8.88
2022-09-13T14:55:53.986Z,9.20
2022-09-13T14:58:44.683Z,9.90
2022-09-13T15:01:34.105Z,9.43
2022-09-13T15:04:22.798Z,8.75
2022-09-13T15:07:20.821Z,7.25
2022-09-13T15:10:20.868Z,8.18
2022-09-13T15:13:09.888Z,6.75
2022-09-13T15:15:56.971Z,6.80
2022-09-13T15:18:43.873Z,7.47
2022-09-13T15:21:35.018Z,7.53
2022-09-13T15:24:26.785Z,6.90
2022-09-13T15:27:20.554Z,6.85
2022-09-13T15:30:21.118Z,6.32
2022-09-13T15:33:29.835Z,7.25
2022-09-13T15:36:27.714Z,7.45
2022-09-13T15:39:16.670Z,6.10
2022-09-13T15:42:03.833Z,7.07
2022-09-13T15:44:51.302Z,7.97
2022-09-13T15:47:38.136Z,7.90
2022-09-13T15:50:28.167Z,6.22
2022-09-13T15:53:15.199Z,7.20
2022-09-13T15:56:03.227Z,5.63
2022-09-13T15:58:50.129Z,7.78
2022-09-13T16:01:37.725Z,6.65
2022-09-13T16:04:24.624Z,5.85
2022-09-13T16:07:11.441Z,5.95
2022-09-13T16:09:58.831Z,5.53
2022-09-13T16:12:45.939Z,5.22
2022-09-13T16:15:32.843Z,6.22
2022-09-13T16:18:22.769Z,3.85
2022-09-13T16:21:09.868Z,4.90
2022-09-13T16:23:56.912Z,3.58
2022-09-13T16:26:43.944Z,3.47
2022-09-13T16:29:31.168Z,3.05
2022-09-13T16:32:18.422Z,3.28
2022-09-13T16:35:07.015Z,3.20
2022-09-13T16:37:54.642Z,3.30
2022-09-13T16:40:42.577Z,4.53
2022-09-13T16:43:29.424Z,3.22
2022-09-13T16:46:17.250Z,4.50
2022-09-13T16:49:04.139Z,3.63
2022-09-13T16:51:52.111Z,3.63
2022-09-13T16:54:38.997Z,4.38
2022-09-13T16:57:25.903Z,4.18
2022-09-13T17:00:14.271Z,4.20
2022-09-13T17:03:01.200Z,4.68
2022-09-13T17:05:58.287Z,4.05
2022-09-13T17:08:50.419Z,4.07
2022-09-13T17:11:39.475Z,3.88
2022-09-13T17:14:26.488Z,4.20
2022-09-13T17:17:14.756Z,5.07
2022-09-13T17:20:04.720Z,3.10
2022-09-13T17:22:52.457Z,5.22
2022-09-13T17:25:45.200Z,5.20
2022-09-13T17:28:34.556Z,6.07
2022-09-13T17:31:21.489Z,4.00
2022-09-13T17:34:09.309Z,4.70
2022-09-13T17:36:56.661Z,3.28
2022-09-13T17:39:43.581Z,2.83
2022-09-13T17:42:31.092Z,5.05
2022-09-13T17:45:18.347Z,4.30
2022-09-13T17:48:05.214Z,5.53
2022-09-13T17:50:52.453Z,3.38
2022-09-13T17:53:40.877Z,2.85
2022-09-13T17:56:29.664Z,4.03
2022-09-13T17:59:20.000Z,3.60
2022-09-13T18:02:07.727Z,2.60
2022-09-13T18:04:54.627Z,1.92
2022-09-13T18:07:41.435Z,2.42
2022-09-13T18:10:49.233Z,3.55
2022-09-13T18:13:35.955Z,3.20
2022-09-13T18:16:25.544Z,4.22
2022-09-13T18:19:12.843Z,12.13
2022-09-13T18:22:00.779Z,1.90
2022-09-13T18:24:47.632Z,3.90
2022-09-13T18:27:34.495Z,1.55
2022-09-13T18:30:21.317Z,2.47
2022-09-13T18:33:11.515Z,2.63
2022-09-13T21:45:32.284Z,4.97
2022-09-13T21:48:22.370Z,2.95
2022-09-13T21:51:19.600Z,4.35
2022-09-13T21:54:13.501Z,5.03
2022-09-13T21:57:16.909Z,4.60
2022-09-13T22:00:23.991Z,3.67
2022-09-13T22:03:15.222Z,4.28
2022-09-13T22:06:14.600Z,4.63
2022-09-13T22:09:25.056Z,5.05
2022-09-13T22:15:18.051Z,6.22
2022-09-13T22:18:45.573Z,7.40
2022-09-13T22:21:59.798Z,5.22
2022-09-13T22:28:20.397Z,7.22
2022-09-13T22:31:15.086Z,6.45
2022-09-13T22:34:10.465Z,4.97
2022-09-13T22:37:16.792Z,9.43
2022-09-13T22:40:10.418Z,6.75
2022-09-13T22:46:54.835Z,5.13
2022-09-13T22:49:48.819Z,3.47
2022-09-13T22:52:48.355Z,7.10
2022-09-13T22:59:25.254Z,4.53
2022-09-13T23:26:14.852Z,5.45
2022-09-13T23:29:09.579Z,3.40
2022-09-13T23:46:03.295Z,2.67
2022-09-13T23:52:18.611Z,6.35
2022-09-13T23:58:34.532Z,3.10
